Time;durP1;ratioP1;P1;durP2;ratioP2;P2;SDS_P1;SDS_P2;PMS_P1;PMS_P2;Temp;Humidity;BMP_temperature;BMP_pressure;BME280_temperature;BME280_humidity;BME280_pressure;Samples;Min_cycle;Max_cycle;Signal;HPM_P1;HPM_P2
2021/12/27 00:01:31;;;;;;;;;;;;;;;8.46;30.47;99198.63;4466271;32;32263;-69
2021/12/27 00:03:59;;;;;;;;;;;;;;;8.10;32.34;99203.88;4468926;32;32912;-71
2021/12/27 00:06:26;;;;;;;;;;;;;;;8.32;30.82;99200.47;4474845;32;33077;-72
2021/12/27 00:08:54;;;;;;;;;;;;;;;8.38;30.83;99193.87;4473136;32;33715;-75
2021/12/27 00:11:21;;;;;;;;;;;;;;;8.47;29.72;99193.16;4469902;32;34337;-73
2021/12/27 00:13:49;;;;;;;;;;;;;;;8.12;31.61;99201.97;4470927;32;34127;-71
2021/12/27 00:16:16;;;;;;;;;;;;;;;7.77;32.31;99195.66;4469816;32;35887;-72
2021/12/27 00:18:44;;;;;;;;;;;;;;;8.12;31.46;99177.97;4470955;32;35015;-72
2021/12/27 00:21:11;;;;;;;;;;;;;;;8.23;31.93;99177.16;4469999;32;32269;-71
2021/12/27 00:23:38;;;;;;;;;;;;;;;8.78;30.49;99175.72;4474396;32;35181;-71
2021/12/27 00:26:06;;;;;;;;;;;;;;;8.92;28.79;99182.66;4468212;32;34239;-72
2021/12/27 00:28:33;;;;;;;;;;;;;;;8.81;29.21;99191.47;4458289;32;34792;-71
2021/12/27 00:31:01;;;;;;;;;;;;;;;8.81;29.63;99190.63;4469888;32;34554;-72
2021/12/27 00:33:29;;;;;;;;;;;;;;;9.00;28.76;99184.75;4480364;32;34129;-72
2021/12/27 00:35:56;;;;;;;;;;;;;;;8.95;29.61;99178.91;4442273;32;830637;-74
2021/12/27 00:38:23;;;;;;;;;;;;;;;8.99;28.94;99186.56;4471420;32;34418;-74
2021/12/27 00:40:51;;;;;;;;;;;;;;;9.04;29.63;99191.53;4478108;32;33640;-72
2021/12/27 00:43:19;;;;;;;;;;;;;;;9.21;29.03;99193.78;4476086;32;33130;-72
2021/12/27 00:45:47;;;;;;;;;;;;;;;9.21;29.19;99192.87;4468050;32;32506;-72
2021/12/27 00:48:15;;;;;;;;;;;;;;;9.27;28.97;99192.41;4472371;32;34155;-73
2021/12/27 00:50:43;;;;;;;;;;;;;;;9.28;28.94;99196.81;4469309;32;32918;-70
2021/12/27 00:53:10;;;;;;;;;;;;;;;9.21;29.31;99192.87;4479928;32;34149;-68
2021/12/27 00:55:38;;;;;;;;;;;;;;;9.28;29.51;99196.81;4473237;32;34360;-71
2021/12/27 00:58:05;;;;;;;;;;;;;;;9.27;29.59;99190.59;4468591;32;33697;-71
2021/12/27 01:00:33;;;;;;;;;;;;;;;9.23;29.84;99180.28;4467473;32;33069;-73
2021/12/27 01:03:01;;;;;;;;;;;;;;;9.03;30.82;99182.69;4473748;32;33993;-72
2021/12/27 01:05:28;;;;;;;;;;;;;;;8.67;31.70;99183.69;4468298;32;34266;-70
2021/12/27 01:07:55;;;;;;;;;;;;;;;8.75;31.76;99172.41;4468390;32;34103;-71
2021/12/27 01:16:10;;;;;;;;;;;;;;;9.56;28.51;99190.97;4472374;32;35273;-71
2021/12/27 01:18:39;;;;;;;;;;;;;;;9.40;28.29;99192.31;4476423;32;33028;-70
2021/12/27 01:21:06;;;;;;;;;;;;;;;9.29;29.46;99191.34;4475314;32;33117;-71
2021/12/27 01:23:34;;;;;;;;;;;;;;;9.20;29.76;99191.19;4466874;32;32926;-69
2021/12/27 01:26:01;;;;;;;;;;;;;;;9.01;30.54;99191.78;4471371;32;34495;-68
2021/12/27 01:28:28;;;;;;;;;;;;;;;9.49;28.13;99186.25;4472281;31;33618;-68
2021/12/27 01:30:56;;;;;;;;;;;;;;;9.27;28.64;99179.91;4469746;32;33573;-69
2021/12/27 01:33:25;;;;;;;;;;;;;;;9.06;29.23;99177.09;4466815;32;33934;-66
2021/12/27 01:35:53;;;;;;;;;;;;;;;9.23;28.87;99170.44;4466345;32;35695;-66
2021/12/27 01:38:21;;;;;;;;;;;;;;;8.94;29.32;99175.38;4469385;31;34188;-68
2021/12/27 01:40:49;;;;;;;;;;;;;;;8.79;29.82;99171.22;4471339;32;33208;-67
2021/12/27 01:43:20;;;;;;;;;;;;;;;9.20;28.92;99175.19;4470577;31;33980;-67
2021/12/27 01:45:51;;;;;;;;;;;;;;;8.98;30.20;99179.50;4474474;32;34396;-67
2021/12/27 01:48:21;;;;;;;;;;;;;;;8.89;29.69;99169.53;4473945;32;34222;-66
2021/12/27 01:50:50;;;;;;;;;;;;;;;8.86;29.60;99167.97;4467529;32;33128;-67
2021/12/27 01:53:17;;;;;;;;;;;;;;;8.68;29.98;99164.03;4468079;32;32806;-67
2021/12/27 01:55:45;;;;;;;;;;;;;;;8.68;30.10;99169.38;4469404;32;33199;-68
2021/12/27 01:58:12;;;;;;;;;;;;;;;8.66;30.24;99175.78;4470847;32;33604;-69
2021/12/27 02:00:41;;;;;;;;;;;;;;;8.89;29.87;99174.03;4468941;31;33381;-67
2021/12/27 02:03:09;;;;;;;;;;;;;;;8.91;29.59;99169.44;4465821;32;35322;-67
2021/12/27 02:05:37;;;;;;;;;;;;;;;8.92;29.13;99171.97;4470626;32;36150;-67
2021/12/27 02:08:04;;;;;;;;;;;;;;;8.43;30.04;99180.19;4464811;32;34192;-67
2021/12/27 02:10:32;;;;;;;;;;;;;;;8.57;29.87;99169.31;4473346;32;31937;-67
2021/12/27 02:13:00;;;;;;;;;;;;;;;8.75;29.48;99173.28;4472209;32;34141;-67
2021/12/27 02:15:29;;;;;;;;;;;;;;;8.62;29.70;99170.69;4464925;32;32908;-67
2021/12/27 02:17:56;;;;;;;;;;;;;;;8.43;29.95;99172.19;4467511;32;34552;-69
2021/12/27 02:20:25;;;;;;;;;;;;;;;8.54;30.12;99181.09;4469763;32;33400;-68
2021/12/27 02:22:55;;;;;;;;;;;;;;;9.02;29.41;99167.66;4477295;32;34057;-67
2021/12/27 02:25:22;;;;;;;;;;;;;;;8.46;30.11;99169.31;4474765;32;35061;-68
2021/12/27 02:27:50;;;;;;;;;;;;;;;8.50;30.22;99176.09;4477128;31;32867;-68
2021/12/27 02:30:17;;;;;;;;;;;;;;;8.53;30.06;99176.72;4474064;32;34885;-67
2021/12/27 02:32:48;;;;;;;;;;;;;;;9.01;29.32;99176.59;4474548;32;34200;-67
2021/12/27 02:35:20;;;;;;;;;;;;;;;9.05;29.25;99167.41;4470385;32;33779;-67
2021/12/27 02:37:47;;;;;;;;;;;;;;;9.09;29.29;99163.53;4473180;31;32979;-67
2021/12/27 02:40:15;;;;;;;;;;;;;;;8.96;29.64;99161.94;4474054;32;35923;-67
2021/12/27 02:42:52;;;;;;;;;;;;;;;8.79;29.95;99156.03;4469876;32;33681;-68
2021/12/27 02:45:20;;;;;;;;;;;;;;;8.92;29.82;99155.09;4473323;32;34029;-67
2021/12/27 02:47:47;;;;;;;;;;;;;;;8.81;30.20;99156.78;4471695;32;34444;-69
2021/12/27 02:50:15;;;;;;;;;;;;;;;8.78;30.45;99161.53;4469529;31;33286;-68
2021/12/27 02:52:42;;;;;;;;;;;;;;;8.97;30.08;99153.78;4470947;32;33301;-67
2021/12/27 02:55:10;;;;;;;;;;;;;;;8.99;30.06;99159.00;4468538;32;34553;-67
2021/12/27 02:57:38;;;;;;;;;;;;;;;9.01;30.17;99157.91;4477671;32;34970;-68
2021/12/27 03:00:11;;;;;;;;;;;;;;;8.87;30.53;99160.81;4471864;32;33160;-69
2021/12/27 03:02:38;;;;;;;;;;;;;;;8.81;30.37;99156.78;4472333;32;34019;-67
2021/12/27 03:05:06;;;;;;;;;;;;;;;8.74;30.77;99152.91;4473762;32;32997;-68
2021/12/27 03:07:33;;;;;;;;;;;;;;;8.67;31.04;99156.13;4471590;32;34431;-68
2021/12/27 03:10:00;;;;;;;;;;;;;;;8.66;31.03;99152.63;4466811;32;33685;-68
2021/12/27 03:12:28;;;;;;;;;;;;;;;8.75;30.86;99153.75;4464619;32;35236;-68
2021/12/27 03:14:55;;;;;;;;;;;;;;;8.67;31.04;99141.00;4466132;32;34010;-69
2021/12/27 03:17:22;;;;;;;;;;;;;;;8.61;31.13;99147.66;4466686;32;34099;-69
2021/12/27 03:19:50;;;;;;;;;;;;;;;8.57;31.14;99139.97;4472892;32;33500;-68
2021/12/27 03:22:17;;;;;;;;;;;;;;;8.73;30.83;99139.66;4472056;31;34177;-70
2021/12/27 03:24:44;;;;;;;;;;;;;;;8.86;30.59;99143.97;4474542;32;35374;-68
2021/12/27 03:27:12;;;;;;;;;;;;;;;8.77;30.87;99141.16;4475562;31;34409;-68
2021/12/27 03:29:39;;;;;;;;;;;;;;;8.88;30.71;99137.66;4472408;32;33229;-69
2021/12/27 03:32:07;;;;;;;;;;;;;;;8.71;30.97;99147.81;4471698;32;33875;-70
2021/12/27 03:34:41;;;;;;;;;;;;;;;8.48;32.62;99140.72;4473068;32;34210;-72
2021/12/27 03:37:08;;;;;;;;;;;;;;;8.37;32.56;99141.47;4474964;32;34256;-71
2021/12/27 03:39:36;;;;;;;;;;;;;;;8.92;31.96;99136.44;4472012;32;33196;-71
2021/12/27 03:42:03;;;;;;;;;;;;;;;9.23;31.45;99133.06;4469027;32;33630;-71
2021/12/27 03:44:30;;;;;;;;;;;;;;;8.77;32.19;99135.81;4463839;32;35293;-71
2021/12/27 03:46:58;;;;;;;;;;;;;;;9.20;31.52;99137.81;4470750;32;35070;-72
2021/12/27 03:49:25;;;;;;;;;;;;;;;9.16;31.68;99142.53;4469238;31;31288;-73
2021/12/27 03:51:52;;;;;;;;;;;;;;;9.03;31.84;99136.47;4473168;32;33995;-74
2021/12/27 03:54:20;;;;;;;;;;;;;;;9.45;31.14;99137.56;4470938;31;33729;-74
2021/12/27 03:56:47;;;;;;;;;;;;;;;9.95;29.82;99145.13;4468767;32;35445;-72
2021/12/27 03:59:37;;;;;;;;;;;;;;;10.18;28.59;99132.56;4474634;32;33371;-72
2021/12/27 04:02:04;;;;;;;;;;;;;;;10.00;29.73;99143.78;4472917;32;34252;-74
2021/12/27 04:04:51;;;;;;;;;;;;;;;10.19;28.39;99135.09;4472922;32;35081;-74
2021/12/27 04:07:38;;;;;;;;;;;;;;;9.59;30.43;99132.94;4472675;32;33895;-74
2021/12/27 04:10:24;;;;;;;;;;;;;;;9.80;30.09;99139.22;4467142;31;33380;-74
2021/12/27 04:13:10;;;;;;;;;;;;;;;10.02;29.41;99132.97;4469948;32;35175;-72
2021/12/27 04:15:39;;;;;;;;;;;;;;;10.18;28.50;99145.94;4470836;32;33865;-73
2021/12/27 04:18:06;;;;;;;;;;;;;;;10.02;29.50;99147.19;4470964;32;35131;-73
2021/12/27 04:20:34;;;;;;;;;;;;;;;10.15;28.86;99141.69;4464409;32;33474;-75
2021/12/27 04:23:01;;;;;;;;;;;;;;;10.23;28.50;99138.34;4469379;32;34259;-73
2021/12/27 04:25:28;;;;;;;;;;;;;;;10.07;29.66;99135.25;4474437;32;34172;-73
2021/12/27 04:27:56;;;;;;;;;;;;;;;10.07;29.63;99137.94;4471898;32;32895;-72
2021/12/27 04:30:23;;;;;;;;;;;;;;;10.20;29.06;99127.91;4471434;32;34535;-71
2021/12/27 04:32:50;;;;;;;;;;;;;;;10.06;29.62;99133.56;4474444;32;35206;-74
2021/12/27 04:35:18;;;;;;;;;;;;;;;10.20;29.03;99127.91;4474474;32;34328;-74
2021/12/27 04:37:46;;;;;;;;;;;;;;;10.23;28.76;99139.19;4475364;32;34793;-75
2021/12/27 04:40:14;;;;;;;;;;;;;;;9.88;30.04;99133.25;4468688;32;33450;-75
2021/12/27 04:42:42;;;;;;;;;;;;;;;10.20;28.84;99134.09;4472908;32;35469;-73
2021/12/27 04:45:12;;;;;;;;;;;;;;;10.07;28.91;99133.41;4472881;32;34125;-72
2021/12/27 04:47:39;;;;;;;;;;;;;;;10.07;28.99;99132.56;4474307;32;34467;-74
2021/12/27 04:50:07;;;;;;;;;;;;;;;10.16;28.58;99129.16;4471504;32;34954;-72
2021/12/27 04:52:35;;;;;;;;;;;;;;;10.07;29.26;99132.56;4476269;32;34021;-71
2021/12/27 04:55:03;;;;;;;;;;;;;;;9.50;31.07;99130.03;4470166;32;33060;-75
2021/12/27 04:57:30;;;;;;;;;;;;;;;9.90;30.35;99142.84;4466438;32;34275;-71
2021/12/27 04:59:58;;;;;;;;;;;;;;;9.79;30.33;99137.50;4466831;32;34385;-73
2021/12/27 05:02:26;;;;;;;;;;;;;;;10.09;29.26;99134.16;4471766;32;32864;-73
2021/12/27 05:04:54;;;;;;;;;;;;;;;9.66;30.97;99140.34;4476968;32;34413;-74
2021/12/27 05:07:21;;;;;;;;;;;;;;;9.79;30.42;99142.84;4472142;32;34970;-70
2021/12/27 05:09:48;;;;;;;;;;;;;;;10.18;29.55;99138.75;4472276;31;34252;-71
2021/12/27 05:12:16;;;;;;;;;;;;;;;10.03;30.44;99140.84;4469662;32;34864;-72
2021/12/27 05:14:43;;;;;;;;;;;;;;;10.07;30.35;99135.25;4477370;32;34412;-71
2021/12/27 05:17:11;;;;;;;;;;;;;;;10.09;29.99;99141.34;4467347;32;34199;-71
2021/12/27 05:19:41;;;;;;;;;;;;;;;9.97;29.93;99130.66;4467720;32;33287;-71
2021/12/27 05:22:09;;;;;;;;;;;;;;;10.00;29.83;99130.41;4469810;32;32838;-73
2021/12/27 05:24:36;;;;;;;;;;;;;;;9.49;31.24;99139.00;4466308;32;34997;-70
2021/12/27 05:27:03;;;;;;;;;;;;;;;9.76;30.72;99141.28;4466442;32;35103;-72
2021/12/27 05:29:31;;;;;;;;;;;;;;;10.06;30.21;99137.09;4469722;32;34349;-70
2021/12/27 05:32:01;;;;;;;;;;;;;;;10.23;29.62;99124.97;4476900;32;34726;-72
2021/12/27 05:34:35;;;;;;;;;;;;;;;10.15;29.65;99132.81;4473066;32;35414;-70
2021/12/27 05:37:02;;;;;;;;;;;;;;;9.56;32.01;99136.69;4475471;31;34601;-71
2021/12/27 05:39:30;;;;;;;;;;;;;;;9.47;32.19;99134.75;4469020;32;32123;-70
2021/12/27 05:41:57;;;;;;;;;;;;;;;10.01;30.58;99124.06;4473814;32;33332;-72
2021/12/27 05:44:25;;;;;;;;;;;;;;;10.21;30.21;99129.63;4473371;32;34300;-71
2021/12/27 05:46:54;;;;;;;;;;;;;;;10.06;30.41;99129.06;4470491;32;33438;-72
2021/12/27 05:49:22;;;;;;;;;;;;;;;10.20;30.02;99125.25;4472396;32;33011;-73
2021/12/27 05:51:49;;;;;;;;;;;;;;;10.22;30.50;99123.28;4479024;32;35021;-70
2021/12/27 05:54:16;;;;;;;;;;;;;;;10.20;31.21;99122.56;4476649;31;35061;-73
2021/12/27 05:56:45;;;;;;;;;;;;;;;10.04;31.74;99134.53;4473794;32;34927;-71
2021/12/27 05:59:12;;;;;;;;;;;;;;;10.02;31.95;99135.66;4469391;31;33444;-71
2021/12/27 06:01:40;;;;;;;;;;;;;;;10.07;32.14;99132.56;4465121;32;34900;-71
2021/12/27 06:04:07;;;;;;;;;;;;;;;10.31;31.46;99127.06;4478495;32;34206;-72
2021/12/27 06:06:35;;;;;;;;;;;;;;;9.93;32.10;99129.22;4472473;32;34260;-71
2021/12/27 06:09:03;;;;;;;;;;;;;;;10.16;31.57;99121.97;4477276;32;33362;-71
2021/12/27 06:11:31;;;;;;;;;;;;;;;9.82;32.17;99115.03;4467161;32;34173;-70
2021/12/27 06:13:58;;;;;;;;;;;;;;;10.07;31.99;99119.22;4472447;32;33988;-70
2021/12/27 06:16:25;;;;;;;;;;;;;;;10.00;31.90;99114.38;4474876;31;35145;-70
2021/12/27 06:18:53;;;;;;;;;;;;;;;9.94;32.19;99117.53;4473677;32;32984;-72
2021/12/27 06:21:20;;;;;;;;;;;;;;;9.85;32.25;99109.44;4469432;32;32848;-70
2021/12/27 06:23:47;;;;;;;;;;;;;;;10.25;31.56;99112.34;4476685;32;34397;-71
2021/12/27 06:26:15;;;;;;;;;;;;;;;9.48;32.60;99115.09;4473202;32;34491;-72
2021/12/27 06:28:42;;;;;;;;;;;;;;;9.92;32.15;99114.16;4475689;32;33441;-71
2021/12/27 06:31:09;;;;;;;;;;;;;;;10.15;31.87;99109.59;4472784;32;33399;-70
2021/12/27 06:33:37;;;;;;;;;;;;;;;9.65;32.37;99114.56;4470742;31;34200;-70
2021/12/27 06:36:05;;;;;;;;;;;;;;;9.72;32.59;99121.12;4473096;32;35342;-70
2021/12/27 06:38:32;;;;;;;;;;;;;;;10.47;30.52;99116.78;4473669;31;33445;-71
2021/12/27 06:41:01;;;;;;;;;;;;;;;10.58;30.12;99111.34;4469217;32;32510;-70
2021/12/27 06:43:30;;;;;;;;;;;;;;;10.27;30.97;99102.37;4478154;31;33405;-73
2021/12/27 06:45:58;;;;;;;;;;;;;;;9.79;32.27;99108.09;4468460;32;34225;-69
2021/12/27 06:48:25;;;;;;;;;;;;;;;10.24;31.43;99105.28;4467755;31;33496;-71
2021/12/27 06:50:53;;;;;;;;;;;;;;;10.79;29.42;99110.53;4472466;32;35075;-70
2021/12/27 06:53:28;;;;;;;;;;;;;;;10.68;30.10;99098.03;4473940;32;32891;-71
2021/12/27 06:55:56;;;;;;;;;;;;;;;10.70;30.23;99104.13;4481799;32;33198;-69
2021/12/27 06:58:23;;;;;;;;;;;;;;;10.35;30.92;99104.44;4473460;32;32192;-70
2021/12/27 07:00:51;;;;;;;;;;;;;;;10.18;31.25;99105.81;4472106;32;34224;-70
2021/12/27 07:03:19;;;;;;;;;;;;;;;11.30;28.92;99105.16;4477672;32;34294;-70
2021/12/27 07:05:48;;;;;;;;;;;;;;;11.48;28.68;99107.16;4473450;32;34305;-69
2021/12/27 07:08:18;;;;;;;;;;;;;;;11.13;29.44;99105.75;4480051;32;32276;-71
2021/12/27 07:10:45;;;;;;;;;;;;;;;11.31;29.44;99108.66;4473676;32;34968;-72
2021/12/27 07:13:12;;;;;;;;;;;;;;;11.50;29.23;99106.06;4475848;32;34141;-69
2021/12/27 07:15:44;;;;;;;;;;;;;;;12.17;27.23;99103.69;4472686;32;35333;-70
2021/12/27 07:18:12;;;;;;;;;;;;;;;11.96;27.95;99103.78;4472088;32;33423;-75
2021/12/27 07:20:39;;;;;;;;;;;;;;;12.06;27.94;99105.50;4474930;32;34458;-74
2021/12/27 07:23:07;;;;;;;;;;;;;;;12.21;27.90;99097.88;4480308;32;35454;-71
2021/12/27 07:25:34;;;;;;;;;;;;;;;12.07;27.96;99103.66;4472767;32;34829;-70
2021/12/27 07:28:02;;;;;;;;;;;;;;;12.06;28.10;99107.31;4472422;32;33157;-71
2021/12/27 07:30:29;;;;;;;;;;;;;;;12.20;28.09;99106.94;4470653;32;34060;-73
2021/12/27 07:32:57;;;;;;;;;;;;;;;12.13;28.19;99111.13;4471218;32;34263;-71
2021/12/27 07:35:24;;;;;;;;;;;;;;;12.28;27.71;99119.63;4474798;32;33969;-72
2021/12/27 07:37:52;;;;;;;;;;;;;;;11.95;28.11;99113.69;4478727;32;33462;-71
2021/12/27 07:40:24;;;;;;;;;;;;;;;12.21;27.83;99113.97;4473576;31;35122;-72
2021/12/27 07:42:51;;;;;;;;;;;;;;;12.27;27.44;99113.41;4475663;32;34171;-71
2021/12/27 07:45:19;;;;;;;;;;;;;;;12.69;26.33;99110.44;4479501;31;33941;-71
2021/12/27 07:47:46;;;;;;;;;;;;;;;12.34;27.28;99109.19;4470414;32;33486;-73
2021/12/27 07:50:13;;;;;;;;;;;;;;;12.37;27.43;99102.69;4465424;32;33738;-73
2021/12/27 07:52:41;;;;;;;;;;;;;;;12.62;26.91;99106.63;4468211;32;34416;-74
2021/12/27 07:55:08;;;;;;;;;;;;;;;12.84;25.92;99108.16;4472777;32;34475;-71
2021/12/27 07:57:36;;;;;;;;;;;;;;;12.32;27.20;99107.63;4468682;31;33144;-73
2021/12/27 08:00:04;;;;;;;;;;;;;;;12.07;27.93;99098.28;4469281;32;33285;-73
2021/12/27 08:02:36;;;;;;;;;;;;;;;12.23;27.66;99101.28;4467840;32;35967;-73
2021/12/27 08:05:04;;;;;;;;;;;;;;;11.98;27.66;99096.47;4470436;32;34725;-71
2021/12/27 08:07:32;;;;;;;;;;;;;;;12.29;27.19;99105.22;4471737;32;33773;-74
2021/12/27 08:09:59;;;;;;;;;;;;;;;12.08;27.27;99102.69;4473360;32;33062;-72
2021/12/27 08:12:27;;;;;;;;;;;;;;;12.17;27.90;99101.00;4474361;32;34457;-71
2021/12/27 08:14:54;;;;;;;;;;;;;;;12.81;26.65;99098.53;4474634;32;33996;-71
2021/12/27 08:17:21;;;;;;;;;;;;;;;12.57;26.99;99099.00;4472278;31;34032;-74
2021/12/27 08:19:49;;;;;;;;;;;;;;;12.57;25.45;99092.78;4473518;32;34227;-72
2021/12/27 08:22:16;;;;;;;;;;;;;;;12.67;25.40;99092.75;4474194;32;35578;-71
2021/12/27 08:24:51;;;;;;;;;;;;;;;11.86;24.58;99093.91;4473549;32;34149;-74
2021/12/27 08:27:19;;;;;;;;;;;;;;;12.61;24.55;99091.50;4475102;32;32924;-70
2021/12/27 08:29:47;;;;;;;;;;;;;;;12.50;24.60;99092.50;4471132;32;35050;-72
2021/12/27 08:32:14;;;;;;;;;;;;;;;12.40;23.98;99090.81;4476308;32;33735;-71
2021/12/27 08:34:42;;;;;;;;;;;;;;;12.52;24.37;99097.72;4472899;32;34210;-72
2021/12/27 08:37:09;;;;;;;;;;;;;;;12.51;23.85;99098.72;4469827;32;33402;-73
2021/12/27 08:39:38;;;;;;;;;;;;;;;12.21;24.36;99094.34;4473885;31;34204;-72
2021/12/27 08:42:10;;;;;;;;;;;;;;;12.13;24.99;99100.41;4472382;32;34210;-74
2021/12/27 08:44:38;;;;;;;;;;;;;;;12.73;23.79;99103.78;4470736;32;32858;-73
2021/12/27 08:47:06;;;;;;;;;;;;;;;12.22;23.58;99107.63;4476232;32;33300;-70
2021/12/27 08:49:33;;;;;;;;;;;;;;;12.52;23.57;99114.69;4473050;32;33126;-69
2021/12/27 08:52:21;;;;;;;;;;;;;;;12.08;23.86;99111.56;4477044;32;35092;-71
2021/12/27 08:54:48;;;;;;;;;;;;;;;11.50;25.50;99123.97;4471796;32;34255;-69
2021/12/27 08:57:15;;;;;;;;;;;;;;;11.59;23.98;99115.13;4477282;32;33577;-69
2021/12/27 08:59:43;;;;;;;;;;;;;;;11.71;24.10;99121.19;4475168;32;33988;-69
2021/12/27 09:02:10;;;;;;;;;;;;;;;11.61;25.42;99121.19;4468296;32;33079;-70
2021/12/27 09:04:38;;;;;;;;;;;;;;;12.36;24.35;99111.75;4471724;32;34189;-70
2021/12/27 09:07:06;;;;;;;;;;;;;;;12.24;24.49;99116.37;4475628;31;33928;-70
2021/12/27 09:09:33;;;;;;;;;;;;;;;12.46;24.47;99111.75;4473799;32;34277;-71
2021/12/27 09:12:00;;;;;;;;;;;;;;;12.52;24.48;99108.44;4472384;31;35381;-70
2021/12/27 09:14:28;;;;;;;;;;;;;;;12.91;23.70;99108.41;4466380;32;33093;-71
2021/12/27 09:16:56;;;;;;;;;;;;;;;12.29;25.46;99108.75;4469124;31;34076;-71
2021/12/27 09:19:23;;;;;;;;;;;;;;;12.86;25.66;99106.16;4473391;32;35164;-71
2021/12/27 09:21:52;;;;;;;;;;;;;;;13.22;25.37;99111.69;4468562;32;35277;-70
2021/12/27 09:24:20;;;;;;;;;;;;;;;12.81;25.99;99111.97;4467517;32;33840;-70
2021/12/27 09:26:47;;;;;;;;;;;;;;;12.31;25.62;99109.47;4469098;32;34053;-70
2021/12/27 09:29:15;;;;;;;;;;;;;;;12.91;24.51;99098.53;4464528;32;35176;-70
2021/12/27 09:31:42;;;;;;;;;;;;;;;12.22;23.97;99104.94;4471646;32;33247;-70
2021/12/27 09:34:09;;;;;;;;;;;;;;;12.59;23.80;99096.19;4471349;32;35236;-70
2021/12/27 09:36:37;;;;;;;;;;;;;;;12.93;23.49;99098.34;4473502;32;34249;-71
2021/12/27 09:39:04;;;;;;;;;;;;;;;12.20;24.48;99087.28;4469366;31;35459;-70
2021/12/27 09:41:32;;;;;;;;;;;;;;;12.03;22.86;99086.16;4472629;32;34358;-70
2021/12/27 09:43:59;;;;;;;;;;;;;;;12.05;23.34;99086.87;4470833;32;34490;-70
2021/12/27 09:46:27;;;;;;;;;;;;;;;11.98;22.48;99083.06;4465314;32;32038;-70
2021/12/27 09:48:55;;;;;;;;;;;;;;;12.48;22.00;99082.91;4471854;32;34079;-71
2021/12/27 09:51:23;;;;;;;;;;;;;;;11.50;23.21;99083.78;4465809;32;34317;-70
2021/12/27 09:53:50;;;;;;;;;;;;;;;11.98;22.14;99077.69;4468729;32;35127;-70
2021/12/27 09:56:18;;;;;;;;;;;;;;;12.50;21.48;99076.41;4478415;31;33566;-70
2021/12/27 09:58:46;;;;;;;;;;;;;;;12.28;21.91;99074.84;4475285;32;35038;-71
2021/12/27 10:01:16;;;;;;;;;;;;;;;12.56;21.08;99065.09;4472231;32;33156;-71
2021/12/27 10:03:47;;;;;;;;;;;;;;;12.43;21.64;99075.28;4475153;32;33343;-71
2021/12/27 10:06:16;;;;;;;;;;;;;;;11.97;21.99;99073.28;4465568;32;32490;-70
2021/12/27 10:08:46;;;;;;;;;;;;;;;12.58;21.45;99064.94;4472984;32;35189;-71
2021/12/27 10:11:17;;;;;;;;;;;;;;;12.76;21.34;99068.56;4466841;32;34116;-71
2021/12/27 10:14:03;;;;;;;;;;;;;;;12.81;21.54;99077.06;4469267;32;33783;-71
2021/12/27 10:16:32;;;;;;;;;;;;;;;12.98;21.82;99069.22;4474494;32;34321;-71
2021/12/27 10:19:00;;;;;;;;;;;;;;;13.35;21.07;99071.09;4475421;31;35217;-71
2021/12/27 10:21:28;;;;;;;;;;;;;;;13.01;21.64;99069.78;4469745;32;34329;-71
2021/12/27 10:24:02;;;;;;;;;;;;;;;12.97;21.09;99065.72;4461749;32;34261;-71
2021/12/27 10:26:30;;;;;;;;;;;;;;;13.31;21.31;99061.63;4470001;32;33015;-71
2021/12/27 10:29:08;;;;;;;;;;;;;;;13.17;20.74;99063.78;4470757;32;34163;-71
2021/12/27 10:31:50;;;;;;;;;;;;;;;12.34;20.79;99065.41;4467987;32;35119;-70
2021/12/27 10:34:19;;;;;;;;;;;;;;;12.82;21.11;99070.69;4473619;32;36877;-71
2021/12/27 10:37:01;;;;;;;;;;;;;;;12.78;21.08;99068.44;4466288;32;33520;-71
2021/12/27 10:39:48;;;;;;;;;;;;;;;13.21;20.27;99064.34;4471038;31;34973;-71
2021/12/27 10:42:17;;;;;;;;;;;;;;;12.89;21.88;99068.25;4476979;32;33981;-71
2021/12/27 10:44:45;;;;;;;;;;;;;;;13.21;21.51;99058.97;4470298;32;32678;-70
2021/12/27 10:47:28;;;;;;;;;;;;;;;13.24;21.41;99062.22;4466513;32;33412;-70
2021/12/27 10:50:02;;;;;;;;;;;;;;;13.19;19.94;99061.81;4468037;32;33008;-70
2021/12/27 10:52:39;;;;;;;;;;;;;;;13.21;20.21;99062.50;4467345;32;34458;-70
2021/12/27 10:55:07;;;;;;;;;;;;;;;13.15;20.88;99064.91;4470291;31;34400;-71
2021/12/27 10:57:34;;;;;;;;;;;;;;;13.28;20.10;99060.09;4479443;32;33460;-71
2021/12/27 11:00:15;;;;;;;;;;;;;;;13.18;19.59;99057.41;4471656;32;34246;-70
2021/12/27 11:02:43;;;;;;;;;;;;;;;12.98;20.63;99058.50;4474850;32;34484;-70
2021/12/27 11:05:15;;;;;;;;;;;;;;;13.23;19.51;99055.13;4469316;32;34189;-71
2021/12/27 11:07:43;;;;;;;;;;;;;;;12.83;20.94;99052.72;4471215;32;34404;-71
2021/12/27 11:10:10;;;;;;;;;;;;;;;12.95;21.34;99043.50;4470404;32;34296;-71
2021/12/27 11:12:38;;;;;;;;;;;;;;;12.68;21.26;99051.50;4471552;31;34357;-71
2021/12/27 11:15:09;;;;;;;;;;;;;;;13.02;20.78;99043.75;4471393;32;34352;-71
2021/12/27 11:17:38;;;;;;;;;;;;;;;13.12;21.31;99049.94;4472087;32;33264;-71
2021/12/27 11:20:08;;;;;;;;;;;;;;;13.15;21.65;99041.59;4471619;32;34511;-71
2021/12/27 11:22:39;;;;;;;;;;;;;;;13.44;20.62;99049.53;4470719;32;34294;-70
2021/12/27 11:25:07;;;;;;;;;;;;;;;13.02;21.12;99038.38;4463827;32;35287;-70
2021/12/27 11:27:35;;;;;;;;;;;;;;;12.92;21.09;99034.91;4473564;32;33692;-73
2021/12/27 11:30:07;;;;;;;;;;;;;;;12.51;21.51;99034.28;4473179;32;33981;-71
2021/12/27 11:33:03;;;;;;;;;;;;;;;12.64;21.44;99039.34;4471824;32;34769;-70
2021/12/27 11:35:32;;;;;;;;;;;;;;;13.27;20.03;99028.84;4469017;32;34892;-70
2021/12/27 11:38:01;;;;;;;;;;;;;;;13.08;21.20;99029.75;4472642;32;32851;-71
2021/12/27 11:40:41;;;;;;;;;;;;;;;13.20;21.22;99030.41;4472289;32;33960;-71
2021/12/27 11:43:09;;;;;;;;;;;;;;;13.27;21.95;99028.84;4466288;32;34610;-71
2021/12/27 11:45:43;;;;;;;;;;;;;;;13.46;22.31;99025.19;4475337;32;33014;-71
2021/12/27 11:48:24;;;;;;;;;;;;;;;13.34;22.36;99032.63;4471592;32;33367;-70
2021/12/27 11:50:57;;;;;;;;;;;;;;;12.88;22.60;99020.91;4470630;32;34039;-70
2021/12/27 11:53:44;;;;;;;;;;;;;;;12.54;22.81;99018.75;4470594;32;34286;-70
2021/12/27 11:56:16;;;;;;;;;;;;;;;12.74;22.26;99019.53;4470436;32;35158;-71
2021/12/27 11:58:45;;;;;;;;;;;;;;;13.06;22.61;99012.91;4471469;32;32286;-72
2021/12/27 12:01:21;;;;;;;;;;;;;;;13.25;21.50;99012.84;4477726;32;34214;-70
2021/12/27 12:03:49;;;;;;;;;;;;;;;13.32;21.48;99010.41;4475658;32;35145;-70
2021/12/27 12:06:37;;;;;;;;;;;;;;;13.43;21.39;99007.53;4471203;32;34052;-71
2021/12/27 12:09:08;;;;;;;;;;;;;;;13.09;22.74;99012.63;4470079;32;32933;-71
2021/12/27 12:11:36;;;;;;;;;;;;;;;13.48;21.67;99004.38;4480109;32;34023;-70
2021/12/27 12:14:22;;;;;;;;;;;;;;;13.49;21.10;98998.03;4474448;32;34551;-70
2021/12/27 12:16:50;;;;;;;;;;;;;;;12.98;22.58;99000.22;4477874;32;34460;-71
2021/12/27 12:19:17;;;;;;;;;;;;;;;13.37;21.92;98994.69;4467968;32;34567;-70
2021/12/27 12:21:47;;;;;;;;;;;;;;;13.49;20.79;98982.72;4477394;32;34381;-71
2021/12/27 12:24:16;;;;;;;;;;;;;;;13.25;22.24;98979.75;4470909;32;33978;-71
2021/12/27 12:26:50;;;;;;;;;;;;;;;13.05;22.15;98989.75;4472947;32;34438;-70
2021/12/27 12:29:27;;;;;;;;;;;;;;;13.09;21.46;98983.06;4473120;32;31864;-70
2021/12/27 12:31:56;;;;;;;;;;;;;;;12.47;23.48;98974.69;4475367;32;34369;-70
2021/12/27 12:34:23;;;;;;;;;;;;;;;13.32;21.80;98974.63;4475909;32;34374;-70
2021/12/27 12:36:52;;;;;;;;;;;;;;;13.19;22.16;98973.13;4470455;32;34226;-69
2021/12/27 12:39:20;;;;;;;;;;;;;;;12.71;22.85;98976.03;4470109;32;33483;-69
2021/12/27 12:41:48;;;;;;;;;;;;;;;12.53;22.56;98975.97;4477912;32;34750;-70
2021/12/27 12:44:17;;;;;;;;;;;;;;;12.66;22.85;98976.47;4471710;32;35337;-69
2021/12/27 12:46:49;;;;;;;;;;;;;;;13.31;21.74;98973.78;4469419;32;33965;-72
2021/12/27 12:49:18;;;;;;;;;;;;;;;12.90;22.38;98975.94;4470553;32;33749;-72
2021/12/27 12:51:50;;;;;;;;;;;;;;;12.75;23.09;98977.44;4471791;32;35257;-72
2021/12/27 12:54:23;;;;;;;;;;;;;;;12.18;23.57;98979.28;4472678;32;35360;-72
2021/12/27 12:57:02;;;;;;;;;;;;;;;12.95;22.25;98980.88;4474723;32;34077;-70
2021/12/27 12:59:35;;;;;;;;;;;;;;;12.96;22.99;98977.19;4469836;32;34324;-70
2021/12/27 13:02:03;;;;;;;;;;;;;;;13.21;22.67;98972.97;4469629;32;35218;-70
2021/12/27 13:04:40;;;;;;;;;;;;;;;12.75;23.85;98974.75;4468186;32;34319;-70
2021/12/27 13:07:09;;;;;;;;;;;;;;;12.66;23.88;98968.41;4468658;32;34495;-70